Time;durP1;ratioP1;P1;durP2;ratioP2;P2;SDS_P1;SDS_P2;PMS_P1;PMS_P2;Temp;Humidity;BMP_temperature;BMP_pressure;BME280_temperature;BME280_humidity;BME280_pressure;Samples;Min_cycle;Max_cycle;Signal;HPM_P1;HPM_P2
2022/10/18 00:00:47;;;;;;;15.50;11.80;;;13.10;99.90;;;13.41;95.06;98896.44;5130846;27;20448;-81
2022/10/18 00:03:14;;;;;;;16.90;12.83;;;13.00;99.90;;;13.41;95.51;98891.03;5132298;27;20529;-80
2022/10/18 00:05:41;;;;;;;14.57;12.93;;;13.00;99.90;;;13.43;95.55;98899.81;5123036;27;20515;-81
2022/10/18 00:08:08;;;;;;;15.63;13.60;;;13.00;99.90;;;13.45;95.21;98903.19;5135823;27;20456;-81
2022/10/18 00:10:36;;;;;;;18.40;13.27;;;13.00;99.90;;;13.52;94.22;98903.97;5133664;27;20838;-79
2022/10/18 00:13:04;;;;;;;14.97;13.47;;;13.00;99.90;;;13.45;94.30;98906.72;5129195;27;20469;-82
2022/10/18 00:15:32;;;;;;;16.73;13.30;;;13.00;99.90;;;13.42;94.38;98914.41;5130202;27;20465;-81
2022/10/18 00:17:59;;;;;;;20.73;14.17;;;12.90;99.90;;;13.35;94.82;98908.16;5137626;27;20537;-82
2022/10/18 00:20:27;;;;;;;14.77;13.20;;;12.90;99.90;;;13.42;94.70;98908.97;5130688;27;20497;-81
2022/10/18 00:22:54;;;;;;;14.27;12.60;;;12.90;99.90;;;13.37;94.14;98917.78;5132755;27;20460;-79
2022/10/18 00:25:21;;;;;;;14.63;12.67;;;12.80;99.90;;;13.31;93.84;98905.88;5130609;27;20449;-83
2022/10/18 00:27:49;;;;;;;15.97;14.20;;;12.80;99.90;;;13.37;94.26;98914.22;5129920;27;20455;-81
2022/10/18 00:30:17;;;;;;;19.80;14.80;;;12.80;99.90;;;13.28;94.21;98905.47;5124598;27;20450;-82
2022/10/18 00:32:44;;;;;;;20.90;13.57;;;12.80;99.90;;;13.28;94.79;98919.88;5132044;27;20445;-82
2022/10/18 00:35:12;;;;;;;15.13;13.63;;;12.80;99.90;;;13.28;94.72;98919.88;5130959;27;20466;-81
2022/10/18 00:37:39;;;;;;;15.70;13.33;;;12.80;99.90;;;13.23;94.86;98911.53;5156984;27;20509;-79
2022/10/18 00:40:09;;;;;;;16.33;13.37;;;12.80;99.90;;;13.22;94.61;98909.84;5135811;27;20816;-80
2022/10/18 00:42:37;;;;;;;20.30;14.10;;;12.70;99.90;;;13.28;94.78;98914.44;5134255;27;20457;-79
2022/10/18 00:45:20;;;;;;;17.33;13.80;;;12.70;99.90;;;13.27;93.94;98891.06;5125446;27;20461;-79
2022/10/18 00:47:53;;;;;;;19.97;14.10;;;12.80;99.90;;;13.25;94.24;98917.56;5141382;27;20668;-80
2022/10/18 00:50:22;;;;;;;15.50;13.83;;;12.80;99.90;;;13.16;95.33;98910.72;5147628;27;20454;-80
2022/10/18 00:52:54;;;;;;;16.83;14.23;;;12.80;99.90;;;13.20;94.92;98905.69;5148778;27;20452;-78
2022/10/18 00:55:21;;;;;;;14.70;13.17;;;12.80;99.90;;;13.14;95.06;98896.53;5149555;27;20453;-78
2022/10/18 00:57:49;;;;;;;18.50;14.00;;;12.70;99.90;;;13.15;94.78;98907.16;5142744;27;20469;-80
2022/10/18 01:00:17;;;;;;;14.27;12.70;;;12.60;99.90;;;13.03;95.73;98900.69;5144304;27;20465;-79
2022/10/18 01:02:47;;;;;;;15.00;13.40;;;12.70;99.90;;;13.03;95.74;98897.97;5142954;27;20445;-78
2022/10/18 01:05:17;;;;;;;14.43;12.90;;;12.70;99.90;;;13.02;95.84;98899.88;5142809;27;20520;-77
2022/10/18 01:08:23;;;;;;;15.00;13.03;;;12.60;99.90;;;13.07;95.24;98909.25;5142562;27;20467;-80
2022/10/18 01:11:05;;;;;;;13.97;12.43;;;12.60;99.90;;;13.01;95.02;98897.34;5131436;27;20448;-76
2022/10/18 01:13:49;;;;;;;15.40;12.77;;;12.60;99.90;;;13.01;94.07;98903.63;5134229;27;20458;-80
2022/10/18 01:16:26;;;;;;;14.17;12.77;;;12.50;99.90;;;13.03;94.06;98903.41;5136447;27;20556;-79
2022/10/18 01:19:36;;;;;;;14.50;13.00;;;12.50;99.90;;;13.03;94.17;98898.81;5149075;27;20460;-78
2022/10/18 01:22:10;;;;;;;15.80;13.00;;;12.50;99.90;;;12.62;93.59;98826.66;5127935;27;20455;-79
2022/10/18 01:25:05;;;;;;;18.97;13.60;;;12.50;99.90;;;12.94;93.70;98881.06;5130263;27;20477;-78
2022/10/18 01:27:49;;;;;;;16.80;14.00;;;12.50;99.90;;;13.03;93.85;98884.41;5137203;27;20457;-82
2022/10/18 01:30:44;;;;;;;16.43;11.97;;;12.50;99.90;;;13.06;93.26;98885.88;5131635;27;20989;-77
2022/10/18 01:33:22;;;;;;;15.73;13.80;;;12.60;99.90;;;12.96;92.92;98867.31;5133266;27;21000;-79
2022/10/18 01:35:55;;;;;;;14.97;13.37;;;12.60;99.90;;;12.99;93.21;98884.00;5129956;27;21048;-77
2022/10/18 01:38:23;;;;;;;14.73;13.23;;;12.50;99.90;;;12.99;93.54;98894.88;5133350;27;20522;-81
2022/10/18 01:40:52;;;;;;;16.13;13.60;;;12.50;99.90;;;12.70;93.92;98859.00;5141756;27;20447;-80
2022/10/18 01:43:23;;;;;;;15.13;13.40;;;12.40;99.90;;;12.78;94.57;98885.06;5133216;27;20552;-82
2022/10/18 01:45:54;;;;;;;18.80;13.97;;;12.40;99.90;;;12.36;94.77;98814.78;5127450;27;20499;-80
2022/10/18 01:48:22;;;;;;;16.70;14.33;;;12.40;99.90;;;12.66;95.22;98884.00;5113331;28;20597;-81
2022/10/18 01:50:50;;;;;;;16.50;13.97;;;12.20;99.90;;;12.66;94.77;98884.00;5110281;28;20888;-81
2022/10/18 01:53:30;;;;;;;16.00;14.17;;;12.20;99.90;;;12.65;95.49;98880.44;5122187;27;20849;-81
2022/10/18 01:56:13;;;;;;;15.67;14.07;;;12.20;99.90;;;12.66;95.55;98884.88;5127023;27;20467;-79
2022/10/18 01:58:53;;;;;;;15.73;13.77;;;12.20;99.90;;;12.65;95.23;98883.16;5132471;27;20538;-78
2022/10/18 02:01:30;;;;;;;15.40;13.70;;;12.20;99.90;;;12.54;95.84;98881.09;5124827;27;20455;-79
2022/10/18 02:04:09;;;;;;;16.80;12.77;;;12.20;99.90;;;12.64;95.55;98886.09;5125378;27;20465;-79
2022/10/18 02:06:43;;;;;;;15.47;13.87;;;12.20;99.90;;;12.54;95.89;98879.19;5125146;27;20449;-80
2022/10/18 02:09:17;;;;;;;19.17;14.40;;;12.20;99.90;;;12.29;95.52;98835.63;5117458;27;20456;-81
2022/10/18 02:11:48;;;;;;;15.73;14.23;;;12.20;99.90;;;12.43;96.19;98880.66;5121961;27;20460;-80
2022/10/18 02:14:18;;;;;;;18.47;13.50;;;12.20;99.90;;;11.95;96.61;98813.03;5133809;27;20467;-81
2022/10/18 02:16:52;;;;;;;17.20;13.60;;;12.10;99.90;;;12.44;95.85;98870.66;5154631;27;20458;-79
2022/10/18 02:19:26;;;;;;;15.30;13.80;;;12.10;99.90;;;11.95;95.27;98808.44;5132788;27;20452;-80
2022/10/18 02:21:55;;;;;;;15.80;13.77;;;12.10;99.90;;;12.32;95.41;98878.53;5130137;27;20453;-81
2022/10/18 02:24:29;;;;;;;14.87;13.30;;;12.00;99.90;;;12.36;95.74;98879.81;5126957;27;20459;-80
2022/10/18 02:26:57;;;;;;;15.00;13.50;;;12.00;99.90;;;12.26;95.64;98879.38;5126328;27;20448;-83
2022/10/18 02:29:24;;;;;;;18.00;13.10;;;12.00;99.90;;;12.32;95.37;98889.38;5123375;27;20457;-81
2022/10/18 02:32:01;;;;;;;16.30;13.47;;;12.00;99.90;;;12.17;95.79;98870.63;5122245;27;20506;-82
2022/10/18 02:34:33;;;;;;;16.73;13.87;;;11.90;99.90;;;12.12;95.38;98863.09;5125039;27;20865;-78
2022/10/18 02:37:02;;;;;;;15.20;13.60;;;11.90;99.90;;;11.97;95.68;98852.38;5139477;27;22521;-77
2022/10/18 02:39:33;;;;;;;17.27;15.10;;;11.90;99.90;;;12.25;95.25;98877.72;5119323;27;20519;-78
2022/10/18 02:42:00;;;;;;;18.57;14.10;;;11.90;99.90;;;12.35;94.66;98885.44;5125344;27;20862;-80
2022/10/18 02:44:27;;;;;;;16.00;13.83;;;11.90;99.90;;;12.23;94.52;98863.53;5119331;27;22367;-78
2022/10/18 02:46:57;;;;;;;16.17;14.13;;;11.90;99.90;;;12.26;94.75;98884.81;5141521;27;20959;-79
2022/10/18 02:49:24;;;;;;;16.10;14.40;;;11.90;99.90;;;12.27;95.00;98884.56;5127308;27;20474;-77
2022/10/18 02:51:51;;;;;;;18.07;14.73;;;11.90;99.90;;;12.21;95.07;98892.69;5123220;27;21431;-77
2022/10/18 02:54:19;;;;;;;19.33;13.27;;;11.80;99.90;;;11.82;95.01;98813.81;5116930;27;20484;-76
2022/10/18 02:56:46;;;;;;;15.73;14.07;;;11.70;99.90;;;11.83;95.33;98821.75;5120830;27;20540;-79
2022/10/18 02:59:13;;;;;;;18.27;13.33;;;11.80;99.90;;;12.18;95.47;98869.56;5113879;27;20791;-78
2022/10/18 03:01:41;;;;;;;17.57;13.77;;;11.80;99.90;;;11.82;95.19;98809.25;5114428;27;20470;-78
2022/10/18 03:04:11;;;;;;;19.20;14.93;;;11.80;99.90;;;12.24;95.19;98879.56;5143953;27;20462;-79
2022/10/18 03:06:38;;;;;;;18.40;13.60;;;11.90;99.90;;;12.20;95.07;98875.63;5129389;27;20452;-79
2022/10/18 03:09:07;;;;;;;19.33;15.63;;;11.80;99.90;;;12.30;94.48;98892.31;5125057;27;20550;-77
2022/10/18 03:11:34;;;;;;;15.20;13.60;;;11.80;99.90;;;12.27;94.54;98886.47;5129199;27;20448;-77
2022/10/18 03:14:02;;;;;;;16.87;13.80;;;11.80;99.90;;;12.28;94.25;98890.84;5127042;27;20452;-78
2022/10/18 03:16:29;;;;;;;16.93;14.77;;;11.80;99.90;;;12.27;94.52;98881.88;5129326;27;20470;-79
2022/10/18 03:18:56;;;;;;;17.60;14.07;;;11.80;99.90;;;12.09;95.18;98868.06;5116690;28;20482;-81
2022/10/18 03:21:25;;;;;;;15.80;14.13;;;11.80;99.90;;;12.11;95.55;98877.69;5125084;28;21276;-79
2022/10/18 03:23:52;;;;;;;19.17;14.80;;;11.80;99.90;;;12.11;95.44;98874.97;5129826;27;20456;-79
2022/10/18 03:26:20;;;;;;;17.37;13.90;;;11.80;99.90;;;12.09;96.22;98868.94;5145178;27;20470;-78
2022/10/18 03:28:48;;;;;;;17.80;15.30;;;11.70;99.90;;;12.07;95.98;98871.00;5129320;27;20520;-80
2022/10/18 03:31:15;;;;;;;19.50;14.80;;;11.80;99.90;;;12.05;96.48;98873.06;5135136;27;20449;-81
2022/10/18 03:33:43;;;;;;;16.13;14.17;;;11.80;99.90;;;12.09;96.45;98871.63;5128293;27;20455;-77
2022/10/18 03:36:10;;;;;;;19.93;14.80;;;11.80;99.90;;;12.13;96.20;98872.88;5146644;27;20448;-78
2022/10/18 03:38:39;;;;;;;18.30;14.57;;;11.80;99.90;;;11.92;95.95;98835.09;5132280;27;20487;-81
2022/10/18 03:41:06;;;;;;;16.47;14.70;;;11.90;99.90;;;12.12;95.96;98873.94;5132104;27;20947;-80
2022/10/18 03:43:33;;;;;;;15.43;13.83;;;11.80;99.90;;;12.01;95.81;98860.94;5134251;27;20460;-81
2022/10/18 03:46:01;;;;;;;23.40;13.30;;;11.70;99.90;;;11.61;95.91;98786.72;5132265;27;20511;-78
2022/10/18 03:48:28;;;;;;;16.00;14.30;;;11.70;99.90;;;12.15;95.74;98868.09;5124867;27;20499;-79
2022/10/18 03:50:56;;;;;;;16.23;14.53;;;11.70;99.90;;;12.11;95.59;98864.13;5112376;28;21011;-80
2022/10/18 03:53:23;;;;;;;19.03;14.57;;;11.80;99.90;;;12.13;95.76;98869.31;5112065;27;20452;-79
2022/10/18 03:55:53;;;;;;;17.10;14.03;;;11.70;99.90;;;11.92;95.90;98830.50;5129644;27;20569;-81
2022/10/18 03:58:21;;;;;;;19.03;14.67;;;11.70;99.90;;;12.11;95.73;98856.00;5125223;27;20549;-84
2022/10/18 04:00:50;;;;;;;21.20;14.73;;;11.80;99.90;;;11.99;95.87;98842.22;5126014;27;20469;-83
2022/10/18 04:03:18;;;;;;;15.17;13.50;;;11.80;99.90;;;12.16;95.76;98849.97;5133180;27;20466;-83
2022/10/18 04:05:46;;;;;;;16.50;14.03;;;11.80;99.90;;;12.09;95.97;98851.81;5132298;27;20456;-78
2022/10/18 04:08:14;;;;;;;15.67;14.07;;;11.80;99.90;;;12.20;95.61;98856.66;5128225;27;21053;-80
2022/10/18 04:10:41;;;;;;;16.83;14.10;;;11.90;99.90;;;12.18;95.38;98843.28;5135634;27;20948;-81
2022/10/18 04:13:10;;;;;;;15.20;13.70;;;11.90;99.90;;;12.32;95.55;98857.72;5124858;27;21038;-81
2022/10/18 04:15:37;;;;;;;16.93;15.03;;;11.90;99.90;;;12.37;95.62;98850.84;5130809;27;20476;-80
2022/10/18 04:18:05;;;;;;;16.10;14.23;;;11.90;99.90;;;12.41;95.32;98857.50;5129491;27;20484;-80
2022/10/18 04:20:32;;;;;;;26.77;21.07;;;12.00;99.90;;;12.32;95.29;98851.44;5122624;27;20449;-80
2022/10/18 04:22:59;;;;;;;17.83;14.40;;;12.00;99.90;;;12.41;95.46;98852.94;5124320;27;20459;-80
2022/10/18 04:25:28;;;;;;;16.10;14.43;;;12.10;99.90;;;12.40;95.68;98848.56;5143384;27;20442;-81
2022/10/18 04:27:55;;;;;;;15.50;13.93;;;12.10;99.90;;;12.41;95.28;98839.38;5133983;27;20470;-80
2022/10/18 04:30:24;;;;;;;14.73;13.30;;;12.10;99.90;;;12.50;95.31;98850.00;5131840;27;20494;-76
2022/10/18 04:32:51;;;;;;;16.43;14.73;;;12.20;99.90;;;12.58;95.16;98849.81;5136679;27;20474;-80
2022/10/18 04:35:21;;;;;;;17.23;14.10;;;12.20;99.90;;;12.57;94.86;98848.97;5128761;27;20843;-79
2022/10/18 04:37:48;;;;;;;16.83;15.13;;;12.20;99.90;;;12.46;94.55;98822.50;5128704;27;20464;-79
2022/10/18 04:40:16;;;;;;;15.10;13.53;;;12.30;99.90;;;12.60;94.88;98847.72;5132840;27;20440;-77
2022/10/18 04:42:43;;;;;;;16.80;13.23;;;12.30;99.90;;;12.69;94.54;98862.75;5114592;27;20587;-74
2022/10/18 04:45:11;;;;;;;16.40;14.23;;;12.30;99.90;;;12.51;94.66;98844.38;5130985;27;20441;-75
2022/10/18 04:47:39;;;;;;;15.90;14.20;;;12.30;99.90;;;12.48;95.88;98850.22;5122239;27;20478;-75
2022/10/18 04:50:08;;;;;;;17.93;14.50;;;12.30;99.90;;;12.42;95.92;98846.47;5130476;27;20479;-75
2022/10/18 04:52:35;;;;;;;16.17;14.57;;;12.30;99.90;;;12.44;96.05;98838.16;5131106;27;20532;-75
2022/10/18 04:55:03;;;;;;;16.90;15.10;;;12.30;99.90;;;12.65;95.78;98839.78;5135427;27;20505;-74
2022/10/18 04:57:30;;;;;;;16.57;14.90;;;12.30;99.90;;;12.64;95.10;98837.31;5132172;27;20954;-76
2022/10/18 04:59:57;;;;;;;15.50;13.93;;;12.40;99.90;;;12.73;94.64;98828.75;5109300;28;20466;-76
2022/10/18 05:02:25;;;;;;;16.17;14.20;;;12.50;99.90;;;12.71;94.68;98840.84;5116266;27;20859;-78
2022/10/18 05:04:53;;;;;;;16.60;14.80;;;12.50;99.90;;;12.74;94.51;98841.25;5120167;27;20470;-77
2022/10/18 05:07:21;;;;;;;17.50;14.00;;;12.50;99.90;;;12.74;94.24;98849.41;5124026;27;20464;-77
2022/10/18 05:09:48;;;;;;;19.30;15.10;;;12.50;99.90;;;12.79;94.06;98850.63;5141056;27;20633;-76
2022/10/18 05:12:15;;;;;;;26.30;14.87;;;12.50;99.90;;;12.67;94.69;98837.72;5154295;27;20482;-75
2022/10/18 05:14:42;;;;;;;27.00;15.20;;;12.50;99.90;;;12.66;95.05;98838.78;5131564;27;20461;-77
2022/10/18 05:17:09;;;;;;;16.00;14.27;;;12.50;99.90;;;12.63;94.88;98830.22;5129320;27;20434;-76
2022/10/18 05:19:36;;;;;;;18.00;14.23;;;12.50;99.90;;;12.72;94.65;98834.38;5125878;27;20487;-72
2022/10/18 05:22:05;;;;;;;14.67;13.20;;;12.50;99.90;;;12.86;94.15;98835.22;5127055;27;20451;-73
2022/10/18 05:24:32;;;;;;;18.90;14.40;;;12.60;99.90;;;12.94;93.66;98824.13;5139998;27;20493;-72
2022/10/18 05:26:59;;;;;;;14.73;13.20;;;12.70;99.90;;;12.95;93.12;98817.66;5123153;27;20460;-71
2022/10/18 05:29:27;;;;;;;15.00;13.40;;;12.70;99.90;;;12.84;93.18;98821.84;5122529;27;20497;-71
2022/10/18 05:31:54;;;;;;;14.60;13.10;;;12.60;99.90;;;12.72;93.40;98810.81;5124574;27;20450;-72
2022/10/18 05:34:23;;;;;;;15.70;12.27;;;12.60;99.90;;;12.81;93.38;98821.44;5122054;27;20991;-71
2022/10/18 05:36:50;;;;;;;14.90;13.37;;;12.60;99.90;;;12.70;93.43;98814.75;5115315;27;20464;-78
2022/10/18 05:39:19;;;;;;;17.23;13.00;;;12.50;99.90;;;12.73;93.25;98826.03;5122531;27;20508;-71
2022/10/18 05:41:46;;;;;;;14.70;12.30;;;12.50;99.90;;;12.91;92.95;98816.41;5110880;27;20466;-74
2022/10/18 05:44:13;;;;;;;12.63;11.00;;;12.70;99.90;;;13.07;93.14;98825.16;5118118;27;20510;-72
2022/10/18 05:46:41;;;;;;;12.00;10.80;;;12.70;99.90;;;13.06;92.09;98835.19;5119222;27;20504;-72
2022/10/18 05:49:09;;;;;;;14.30;11.63;;;12.80;99.90;;;13.00;91.67;98831.44;5120711;27;20528;-74
2022/10/18 05:51:36;;;;;;;14.00;12.50;;;12.80;99.90;;;13.08;91.34;98837.66;5122232;27;20464;-74
2022/10/18 05:54:04;;;;;;;12.37;11.07;;;12.70;99.90;;;13.09;90.89;98836.63;5116500;27;20460;-73
2022/10/18 05:56:32;;;;;;;16.73;12.43;;;12.80;99.90;;;12.97;90.97;98837.28;5123145;27;20487;-74
2022/10/18 05:58:59;;;;;;;12.40;11.13;;;12.80;99.90;;;13.02;91.24;98834.75;5111112;27;20482;-72
2022/10/18 06:01:27;;;;;;;12.70;11.33;;;12.80;99.90;;;13.13;91.20;98837.88;5122199;27;20483;-72
2022/10/18 06:03:54;;;;;;;14.90;12.40;;;12.80;99.90;;;13.02;91.83;98833.91;5120288;27;20465;-72
2022/10/18 06:06:22;;;;;;;13.93;12.33;;;12.70;99.90;;;13.04;91.65;98831.81;5117428;27;21323;-72
2022/10/18 06:08:53;;;;;;;14.50;12.20;;;12.80;99.90;;;13.17;91.48;98836.41;5126673;27;20449;-72
2022/10/18 06:11:21;;;;;;;13.53;11.80;;;12.80;99.90;;;13.08;91.64;98833.09;5120998;27;20543;-72
2022/10/18 06:13:52;;;;;;;21.87;11.83;;;12.80;99.90;;;12.97;91.47;98793.88;5115768;27;20454;-73
2022/10/18 06:16:21;;;;;;;13.87;12.37;;;12.90;99.90;;;13.22;91.31;98825.72;5126438;27;20455;-73
2022/10/18 06:18:50;;;;;;;15.10;11.63;;;13.00;99.90;;;13.27;91.36;98841.38;5114952;27;20570;-72
2022/10/18 06:21:18;;;;;;;13.40;11.90;;;13.00;99.90;;;13.35;90.96;98848.47;5128760;27;20456;-71
2022/10/18 06:23:48;;;;;;;18.17;12.60;;;13.10;99.90;;;13.46;91.24;98845.13;5118365;27;20457;-70
2022/10/18 06:26:16;;;;;;;14.80;12.40;;;13.10;99.90;;;13.08;90.00;98802.41;5119625;27;20462;-73
2022/10/18 06:28:44;;;;;;;17.73;12.40;;;13.20;99.90;;;13.43;90.72;98857.22;5120311;27;20864;-71
2022/10/18 06:31:14;;;;;;;14.23;12.37;;;13.20;99.90;;;13.45;90.20;98855.13;5119117;27;21286;-82
2022/10/18 06:33:42;;;;;;;14.47;12.13;;;13.30;99.90;;;13.54;90.29;98858.44;5112730;27;20468;-71
2022/10/18 06:36:13;;;;;;;14.47;12.97;;;13.30;99.90;;;13.64;89.74;98868.03;5116378;27;20463;-71
2022/10/18 06:38:41;;;;;;;17.43;12.57;;;13.30;99.90;;;13.58;88.87;98843.41;5113805;27;20481;-71
2022/10/18 06:41:08;;;;;;;14.77;12.47;;;13.40;99.90;;;13.62;89.77;98848.41;5114228;27;20869;-72
2022/10/18 06:43:36;;;;;;;13.10;11.73;;;13.40;99.90;;;13.60;89.33;98862.19;5116232;27;21084;-71
2022/10/18 06:46:07;;;;;;;13.53;12.03;;;13.40;99.90;;;13.79;88.61;98848.72;5114212;27;20842;-71
2022/10/18 06:48:38;;;;;;;13.43;12.13;;;13.50;99.90;;;13.71;88.49;98860.69;5117779;27;20505;-71
2022/10/18 06:51:08;;;;;;;18.83;12.37;;;13.50;99.90;;;13.69;88.29;98855.47;5117879;27;20539;-71
2022/10/18 06:53:38;;;;;;;13.00;11.70;;;13.50;99.90;;;13.65;88.56;98853.41;5116100;27;20532;-71
2022/10/18 06:56:09;;;;;;;15.48;13.30;;;13.50;99.90;;;13.81;88.23;98862.97;5128509;27;20451;-70
2022/10/18 06:58:37;;;;;;;14.63;11.90;;;13.50;99.90;;;13.79;88.40;98856.88;5116949;27;20287;-71
2022/10/18 07:01:07;;;;;;;18.60;11.27;;;13.60;99.90;;;13.86;87.46;98855.81;5134407;27;20469;-70
2022/10/18 07:03:36;;;;;;;12.80;11.50;;;13.60;99.90;;;13.98;87.23;98847.81;5115249;27;20457;-71
2022/10/18 07:06:05;;;;;;;11.97;10.77;;;13.60;99.90;;;13.99;86.63;98843.19;5120133;27;20547;-71
2022/10/18 07:08:33;;;;;;;13.20;11.80;;;13.70;99.90;;;14.06;87.36;98848.59;5118514;27;20463;-72
2022/10/18 07:11:00;;;;;;;17.57;10.87;;;13.80;99.90;;;14.10;86.16;98849.81;5120527;27;20454;-71
2022/10/18 07:13:30;;;;;;;12.47;10.13;;;13.90;99.90;;;14.45;84.75;98847.50;5122671;27;20450;-72
2022/10/18 07:16:07;;;;;;;14.77;10.60;;;14.00;99.90;;;14.53;84.20;98840.97;5121734;27;20465;-71
2022/10/18 07:18:37;;;;;;;19.43;11.37;;;14.20;99.60;;;14.57;83.54;98855.81;5116401;28;20458;-71
2022/10/18 07:21:07;;;;;;;15.80;11.33;;;14.30;97.30;;;14.45;84.52;98846.69;5120617;27;20463;-72
2022/10/18 07:23:36;;;;;;;19.30;10.87;;;14.20;97.70;;;14.36;85.76;98846.13;5124244;28;20465;-72
2022/10/18 07:26:12;;;;;;;12.40;11.17;;;14.10;99.10;;;14.45;85.42;98850.22;5123814;27;20469;-71
2022/10/18 07:28:39;;;;;;;16.73;11.03;;;14.10;99.30;;;14.30;86.03;98849.69;5121679;27;20453;-71
2022/10/18 07:31:09;;;;;;;11.30;10.30;;;14.00;99.90;;;14.39;85.67;98853.84;5129363;27;20473;-71
2022/10/18 07:33:37;;;;;;;16.43;12.20;;;14.10;99.90;;;14.64;84.82;98850.31;5132681;27;20688;-71
2022/10/18 07:36:07;;;;;;;13.00;11.63;;;14.20;99.70;;;14.59;85.23;98858.28;5122087;27;20500;-70
2022/10/18 07:38:36;;;;;;;12.30;10.60;;;14.30;99.30;;;14.76;84.55;98857.75;5125793;27;20461;-72
2022/10/18 07:41:06;;;;;;;12.73;11.00;;;14.40;99.10;;;14.98;83.83;98861.75;5122513;27;20465;-73
2022/10/18 07:43:34;;;;;;;13.43;11.30;;;14.50;98.70;;;15.18;83.51;98866.16;5135410;27;20516;-71
2022/10/18 07:46:03;;;;;;;11.90;10.70;;;14.70;98.10;;;15.32;82.58;98866.03;5119506;28;20446;-71
2022/10/18 07:48:31;;;;;;;14.33;10.47;;;14.90;97.30;;;15.39;82.14;98861.34;5134785;27;20952;-72
2022/10/18 07:51:01;;;;;;;12.03;10.20;;;14.90;96.90;;;15.53;82.00;98862.84;5135850;27;20462;-72
2022/10/18 07:53:28;;;;;;;12.57;11.23;;;15.00;97.10;;;15.38;82.29;98862.41;5122850;27;20500;-71
2022/10/18 07:55:58;;;;;;;13.13;10.93;;;15.00;96.50;;;15.00;84.15;98859.66;5136981;27;20442;-72
2022/10/18 07:58:25;;;;;;;13.90;12.40;;;14.90;97.20;;;14.94;84.87;98857.84;5139961;27;20649;-71
2022/10/18 08:00:53;;;;;;;12.13;10.90;;;14.80;98.10;;;15.21;84.49;98854.81;5127370;27;20461;-71
2022/10/18 08:03:21;;;;;;;13.30;11.90;;;14.90;98.50;;;15.36;83.59;98859.06;5113720;27;20451;-71
2022/10/18 08:05:53;;;;;;;14.30;10.77;;;15.00;97.60;;;15.49;83.25;98852.66;5113028;27;20467;-68
2022/10/18 08:08:23;;;;;;;12.60;11.33;;;15.10;97.30;;;15.71;82.10;98847.59;5115540;28;20580;-69
2022/10/18 08:10:51;;;;;;;16.00;10.60;;;15.30;96.50;;;15.92;81.47;98853.63;5111317;28;20470;-69
2022/10/18 08:13:18;;;;;;;10.77;9.77;;;15.40;96.60;;;16.06;81.42;98849.66;5117543;28;21163;-69
2022/10/18 08:15:46;;;;;;;19.87;12.00;;;15.50;96.20;;;16.25;80.54;98855.06;5116221;27;20463;-69
2022/10/18 08:18:13;;;;;;;17.63;11.03;;;15.60;95.80;;;16.48;79.68;98853.47;5134759;27;20831;-69
2022/10/18 08:20:43;;;;;;;13.20;10.70;;;15.80;95.30;;;16.75;79.23;98855.75;5122748;27;20780;-69
2022/10/18 08:23:11;;;;;;;12.80;11.50;;;16.10;95.30;;;16.94;77.53;98849.13;5119987;27;20463;-69
2022/10/18 08:25:40;;;;;;;12.87;10.70;;;16.30;93.90;;;17.14;76.66;98861.63;5123884;27;20987;-69
2022/10/18 08:28:07;;;;;;;11.77;10.60;;;16.40;93.30;;;17.33;75.60;98875.13;5127087;27;20470;-69
2022/10/18 08:30:36;;;;;;;12.60;10.93;;;16.60;92.50;;;17.35;75.43;98883.91;5121425;27;20446;-70
2022/10/18 08:33:03;;;;;;;12.50;9.50;;;16.70;92.10;;;17.36;75.35;98889.16;5121154;27;20459;-71
2022/10/18 08:35:31;;;;;;;13.13;11.57;;;16.80;92.00;;;17.35;74.96;98867.53;5119544;27;20449;-69
2022/10/18 08:37:59;;;;;;;11.03;10.00;;;16.90;92.00;;;17.34;75.47;98879.53;5122061;27;20469;-70
2022/10/18 08:40:27;;;;;;;12.47;10.40;;;16.90;91.90;;;17.50;75.41;98878.78;5118657;27;20463;-69
2022/10/18 08:43:07;;;;;;;11.57;9.83;;;16.90;91.90;;;17.67;74.58;98887.09;5121406;27;20472;-69
2022/10/18 08:45:40;;;;;;;11.53;9.63;;;17.00;91.60;;;17.83;73.52;98876.47;5116558;27;20459;-70
2022/10/18 08:48:10;;;;;;;14.07;9.67;;;17.20;91.30;;;17.83;73.32;98871.84;5132174;27;20463;-69
2022/10/18 08:50:37;;;;;;;13.13;10.33;;;17.30;91.00;;;17.98;72.63;98859.56;5124383;27;22268;-70
2022/10/18 08:53:17;;;;;;;12.10;9.17;;;17.40;90.90;;;18.25;71.70;98865.28;5117205;27;20458;-69
2022/10/18 08:55:51;;;;;;;10.00;9.10;;;17.60;90.70;;;18.24;71.87;98857.31;5115405;27;20966;-72
2022/10/18 08:58:23;;;;;;;9.17;7.90;;;17.70;90.60;;;18.37;70.59;98862.50;5111697;27;20462;-70
2022/10/18 09:01:03;;;;;;;9.53;8.43;;;17.70;90.10;;;18.52;70.65;98866.56;5131018;27;20507;-70
2022/10/18 09:03:56;;;;;;;10.63;8.00;;;17.90;90.20;;;18.81;69.12;98871.97;5112982;27;20542;-70
2022/10/18 09:06:29;;;;;;;10.57;8.43;;;18.10;90.00;;;19.06;68.68;98870.78;5124676;27;20534;-71
2022/10/18 09:09:15;;;;;;;8.60;7.70;;;18.30;89.50;;;19.39;67.55;98864.38;5125196;27;20461;-70
2022/10/18 09:11:54;;;;;;;10.23;6.83;;;18.70;88.90;;;18.87;67.99;98857.28;5122925;27;20463;-70
2022/10/18 09:14:42;;;;;;;11.33;7.00;;;18.70;87.80;;;19.03;67.92;98860.28;5118501;27;20458;-71
2022/10/18 09:17:23;;;;;;;8.93;6.77;;;18.60;88.10;;;19.28;67.17;98850.81;5121904;27;20476;-70
2022/10/18 09:20:05;;;;;;;10.43;6.90;;;18.80;88.00;;;19.48;66.03;98856.56;5134401;27;21287;-71
2022/10/18 09:22:48;;;;;;;11.50;6.17;;;18.90;87.90;;;19.90;64.44;98852.44;5120327;27;21035;-70
2022/10/18 09:25:20;;;;;;;6.73;6.13;;;19.20;87.00;;;20.30;63.56;98860.53;5121425;27;20524;-71
2022/10/18 09:27:56;;;;;;;9.07;6.13;;;19.60;86.30;;;20.61;62.37;98855.34;5119026;27;20510;-71
2022/10/18 09:30:45;;;;;;;6.83;5.57;;;20.00;85.60;;;20.89;61.81;98851.50;5113202;27;20969;-72
2022/10/18 09:33:44;;;;;;;6.33;5.60;;;20.30;85.10;;;20.62;61.62;98859.72;5123807;27;20470;-71
2022/10/18 09:36:18;;;;;;;7.80;5.20;;;20.30;84.20;;;21.01;60.35;98850.47;5124505;27;20553;-72
2022/10/18 09:38:49;;;;;;;6.17;5.40;;;20.50;84.20;;;21.25;59.96;98863.81;5125997;27;20464;-71
2022/10/18 09:41:23;;;;;;;7.00;6.00;;;20.60;83.90;;;21.38;59.28;98860.59;5138180;27;20477;-70
2022/10/18 09:43:56;;;;;;;6.27;5.60;;;20.80;83.10;;;21.56;58.99;98861.22;5112998;27;20458;-70
2022/10/18 09:46:30;;;;;;;5.93;5.33;;;21.10;82.90;;;21.95;58.19;98863.63;5118396;27;20735;-71
2022/10/18 09:49:02;;;;;;;8.70;6.13;;;21.20;82.80;;;22.02;58.43;98866.13;5117628;27;20455;-72
2022/10/18 09:51:35;;;;;;;7.43;6.30;;;21.40;82.50;;;22.05;57.76;98871.09;5119473;27;20523;-73
2022/10/18 09:54:19;;;;;;;4.67;4.10;;;21.50;82.10;;;22.07;57.36;98871.63;5117926;27;20457;-72
2022/10/18 09:56:50;;;;;;;6.77;5.00;;;21.60;81.70;;;21.84;57.78;98871.03;5120512;27;20461;-70
2022/10/18 09:59:36;;;;;;;7.30;5.03;;;21.50;81.50;;;21.77;58.72;98882.28;5128866;27;20453;-72
2022/10/18 10:02:05;;;;;;;8.13;4.70;;;21.40;81.70;;;22.13;57.56;98875.22;5121278;27;20502;-71
2022/10/18 10:04:33;;;;;;;5.13;4.63;;;21.50;81.70;;;22.54;56.91;98864.34;5112406;27;20459;-71
2022/10/18 10:07:02;;;;;;;5.40;4.90;;;21.70;81.70;;;22.84;56.20;98868.19;5122754;27;20454;-71
2022/10/18 10:09:36;;;;;;;6.60;4.60;;;21.90;81.50;;;22.97;55.13;98866.81;5116386;27;20456;-71
2022/10/18 10:12:03;;;;;;;6.07;4.10;;;22.20;80.80;;;22.98;55.33;98873.16;5116053;27;20470;-70
2022/10/18 10:14:30;;;;;;;4.87;4.37;;;22.40;80.20;;;23.07;55.09;98874.22;5131832;27;20463;-72
2022/10/18 10:17:02;;;;;;;7.93;4.87;;;22.40;80.10;;;22.98;55.94;98870.41;5117845;27;20457;-71
2022/10/18 10:19:33;;;;;;;5.23;4.37;;;22.30;80.60;;;22.95;55.11;98865.41;5133164;27;20478;-71
2022/10/18 10:22:05;;;;;;;6.37;4.50;;;22.40;79.80;;;22.74;55.98;98854.41;5116132;27;20458;-73